Time;durP1;ratioP1;P1;durP2;ratioP2;P2;SDS_P1;SDS_P2;PMS_P1;PMS_P2;Temp;Humidity;BMP_temperature;BMP_pressure;BME280_temperature;BME280_humidity;BME280_pressure;Samples;Min_cycle;Max_cycle;Signal;HPM_P1;HPM_P2
2021/09/22 00:00:45;;;;;;;38.85;27.08;;;;;;;12.43;87.16;103132.56;5050036;28;20032;-59
2021/09/22 00:03:11;;;;;;;36.45;25.52;;;;;;;12.44;87.27;103133.41;5049841;28;20025;-75
2021/09/22 00:05:36;;;;;;;38.90;27.27;;;;;;;12.40;87.16;103131.72;5050217;28;20074;-62
2021/09/22 00:08:01;;;;;;;38.33;25.77;;;;;;;12.35;87.46;103122.94;5049722;28;20430;-60
2021/09/22 00:10:27;;;;;;;38.15;24.67;;;;;;;12.30;87.35;103128.31;5050427;28;20021;-59
2021/09/22 00:12:54;;;;;;;36.05;25.92;;;;;;;12.22;87.09;103123.13;5049572;28;20425;-61
2021/09/22 00:15:22;;;;;;;43.40;28.00;;;;;;;12.19;87.66;103131.16;5049784;28;20028;-60
2021/09/22 00:17:47;;;;;;;41.10;27.85;;;;;;;12.24;87.63;103131.97;5049034;28;20040;-59
2021/09/22 00:20:14;;;;;;;42.75;28.00;;;;;;;12.25;88.20;103133.72;5049817;28;20223;-59
2021/09/22 00:22:39;;;;;;;40.90;26.65;;;;;;;12.29;88.07;103134.56;5049449;28;20037;-59
2021/09/22 00:25:06;;;;;;;46.65;29.27;;;;;;;12.27;88.26;103136.34;5049728;28;20142;-61
2021/09/22 00:27:32;;;;;;;43.38;27.92;;;;;;;12.23;88.33;103132.84;5048938;28;20119;-61
2021/09/22 00:29:58;;;;;;;43.40;27.60;;;;;;;12.21;88.14;103140.00;5030668;28;20037;-63
2021/09/22 00:32:25;;;;;;;38.97;25.58;;;;;;;12.19;88.12;103125.84;5034048;28;20029;-70
2021/09/22 00:34:50;;;;;;;48.25;29.27;;;;;;;12.21;87.97;103120.50;5049376;28;20059;-59
2021/09/22 00:37:15;;;;;;;41.85;26.88;;;;;;;12.21;88.05;103121.41;5049837;28;20395;-64
2021/09/22 00:39:41;;;;;;;45.80;29.15;;;;;;;12.20;88.41;103118.75;5049144;28;20047;-59
2021/09/22 00:42:06;;;;;;;43.20;28.10;;;;;;;12.17;88.43;103122.31;5051243;28;20037;-62
2021/09/22 00:44:49;;;;;;;45.22;28.13;;;;;;;12.10;88.54;103123.31;5051538;28;20028;-69
2021/09/22 00:47:15;;;;;;;49.42;29.15;;;;;;;12.08;88.66;103125.97;5051052;28;20028;-60
2021/09/22 00:49:40;;;;;;;44.45;28.73;;;;;;;12.08;88.93;103125.13;5048675;28;20418;-60
2021/09/22 00:52:05;;;;;;;44.85;28.02;;;;;;;12.06;88.84;103132.22;5049423;28;20025;-59
2021/09/22 00:54:31;;;;;;;48.92;28.92;;;;;;;12.04;89.05;103124.28;5048725;28;20092;-62
2021/09/22 00:56:56;;;;;;;44.70;26.67;;;;;;;12.06;88.76;103125.16;5049377;28;20051;-65
2021/09/22 00:59:21;;;;;;;50.08;30.67;;;;;;;12.05;89.12;103125.19;5048708;28;20029;-61
2021/09/22 01:01:49;;;;;;;43.92;26.88;;;;;;;12.04;89.45;103126.94;5048963;28;20095;-59
2021/09/22 01:04:15;;;;;;;42.72;27.25;;;;;;;12.04;89.46;103113.66;5048529;28;20421;-59
2021/09/22 01:06:42;;;;;;;44.33;27.23;;;;;;;12.05;89.24;103125.19;5049597;28;20024;-66
2021/09/22 01:09:07;;;;;;;51.30;29.30;;;;;;;12.02;89.53;103119.88;5049144;28;20021;-58
2021/09/22 01:11:35;;;;;;;47.67;28.15;;;;;;;12.00;89.45;103125.22;5048384;28;20464;-61
2021/09/22 01:14:00;;;;;;;46.15;27.38;;;;;;;12.00;89.92;103119.06;5048470;28;20025;-59
2021/09/22 01:16:26;;;;;;;48.75;28.55;;;;;;;12.00;90.00;103109.28;5048728;28;20102;-60
2021/09/22 01:18:51;;;;;;;42.42;27.35;;;;;;;12.01;89.98;103111.06;5048427;28;20502;-71
2021/09/22 01:21:21;;;;;;;42.63;26.77;;;;;;;12.02;90.02;103103.97;5048089;28;20090;-60
2021/09/22 01:23:47;;;;;;;46.20;26.70;;;;;;;12.00;90.06;103104.00;5048697;28;20488;-59
2021/09/22 01:26:13;;;;;;;43.97;26.58;;;;;;;12.01;90.18;103110.16;5046677;28;20033;-63
2021/09/22 01:28:38;;;;;;;41.70;26.40;;;;;;;12.01;90.02;103107.50;5048420;28;20025;-65
2021/09/22 01:31:04;;;;;;;43.22;27.73;;;;;;;11.98;89.97;103110.22;5048492;28;20082;-59
2021/09/22 01:33:30;;;;;;;45.90;26.60;;;;;;;11.92;90.25;103097.88;5048255;28;20020;-59
2021/09/22 01:35:55;;;;;;;46.70;27.08;;;;;;;11.88;90.27;103104.13;5047926;28;20043;-59
2021/09/22 01:38:24;;;;;;;45.75;27.00;;;;;;;11.84;90.32;103105.06;5048967;28;20040;-59
2021/09/22 01:41:01;;;;;;;46.95;26.17;;;;;;;11.83;90.30;103100.66;5048616;28;20032;-59
2021/09/22 01:43:28;;;;;;;44.53;25.00;;;;;;;11.76;89.91;103106.03;5048147;28;20135;-59
2021/09/22 01:45:54;;;;;;;41.28;23.95;;;;;;;11.75;90.57;103108.72;5048390;28;20021;-63
2021/09/22 01:48:19;;;;;;;39.33;25.38;;;;;;;11.76;90.21;103107.81;5048080;28;20051;-59
2021/09/22 01:50:46;;;;;;;42.90;26.27;;;;;;;11.76;90.48;103103.38;5047719;28;20443;-60
2021/09/22 01:53:12;;;;;;;43.00;26.08;;;;;;;11.78;90.67;103106.03;5048367;28;20498;-60
2021/09/22 01:55:37;;;;;;;45.25;26.25;;;;;;;11.77;90.55;103104.28;5047316;28;20120;-62
2021/09/22 01:58:02;;;;;;;43.70;25.02;;;;;;;11.75;90.84;103099.00;5047915;28;20057;-67
2021/09/22 02:00:28;;;;;;;41.90;25.52;;;;;;;11.73;90.37;103107.88;5048104;28;20170;-60
2021/09/22 02:02:54;;;;;;;45.90;26.52;;;;;;;11.74;90.85;103113.16;5048543;28;20049;-69
2021/09/22 02:05:19;;;;;;;44.88;25.95;;;;;;;11.75;91.05;103109.63;5047546;28;20029;-60
2021/09/22 02:07:44;;;;;;;46.15;25.17;;;;;;;11.76;90.96;103118.44;5048354;28;20125;-70
2021/09/22 02:10:10;;;;;;;48.38;25.35;;;;;;;11.80;91.12;103106.88;5047757;28;20031;-59
2021/09/22 02:12:35;;;;;;;44.08;24.33;;;;;;;11.80;91.09;103109.53;5048330;28;20021;-60
2021/09/22 02:15:01;;;;;;;45.75;23.58;;;;;;;11.78;90.86;103103.38;5047720;28;20068;-59
2021/09/22 02:17:26;;;;;;;44.78;24.00;;;;;;;11.78;90.91;103095.44;5048144;28;20021;-61
2021/09/22 02:19:52;;;;;;;44.92;25.08;;;;;;;11.76;91.13;103086.59;5046116;28;20040;-60
2021/09/22 02:22:17;;;;;;;45.67;26.50;;;;;;;11.75;91.31;103084.81;5048296;28;20170;-59
2021/09/22 02:24:43;;;;;;;46.42;25.80;;;;;;;11.77;91.68;103086.56;5047710;28;20079;-59
2021/09/22 02:27:10;;;;;;;43.38;25.58;;;;;;;11.78;91.52;103083.00;5047597;28;20037;-59
2021/09/22 02:29:36;;;;;;;45.58;24.35;;;;;;;11.79;91.71;103081.22;5047716;28;20168;-59
2021/09/22 02:32:03;;;;;;;42.40;25.67;;;;;;;11.80;91.42;103086.53;5048056;28;20051;-62
2021/09/22 02:34:29;;;;;;;48.67;27.00;;;;;;;11.77;91.25;103075.94;5051810;28;20033;-66
2021/09/22 02:36:54;;;;;;;42.70;26.02;;;;;;;11.72;91.53;103075.13;5051659;28;20029;-60
2021/09/22 02:39:19;;;;;;;44.88;25.45;;;;;;;11.68;91.67;103070.78;5051859;28;20434;-73
2021/09/22 02:41:45;;;;;;;46.05;25.10;;;;;;;11.64;91.52;103075.25;5051570;28;20056;-60
2021/09/22 02:44:10;;;;;;;43.63;24.58;;;;;;;11.63;91.64;103072.63;5051835;28;20092;-67
2021/09/22 02:46:35;;;;;;;45.75;25.30;;;;;;;11.61;91.36;103077.06;5051960;28;20060;-66
2021/09/22 02:49:01;;;;;;;43.13;24.30;;;;;;;11.61;91.28;103075.28;5051691;28;20127;-70
2021/09/22 02:51:27;;;;;;;44.63;24.77;;;;;;;11.60;91.56;103073.53;5051121;28;20033;-67
2021/09/22 02:53:52;;;;;;;42.00;24.23;;;;;;;11.60;91.58;103080.63;5051123;28;20387;-66
2021/09/22 02:56:17;;;;;;;40.42;23.67;;;;;;;11.61;91.69;103074.41;5051629;28;20138;-60
2021/09/22 02:58:43;;;;;;;44.88;25.23;;;;;;;11.63;91.51;103080.56;5051441;28;20227;-60
2021/09/22 03:01:08;;;;;;;47.92;25.75;;;;;;;11.61;91.76;103069.09;5051337;28;20063;-59
2021/09/22 03:03:34;;;;;;;46.72;26.13;;;;;;;11.58;92.14;103066.50;5051463;28;20173;-62
2021/09/22 03:05:59;;;;;;;42.17;25.33;;;;;;;11.58;92.03;103062.03;5051478;28;20086;-59
2021/09/22 03:08:24;;;;;;;43.80;25.75;;;;;;;11.59;92.11;103063.81;5051502;28;20021;-71
2021/09/22 03:10:49;;;;;;;46.35;25.52;;;;;;;11.60;91.87;103070.00;5051309;28;20369;-59
2021/09/22 03:13:15;;;;;;;43.55;24.70;;;;;;;11.61;92.11;103067.34;5051036;28;20154;-59
2021/09/22 03:15:41;;;;;;;40.60;24.98;;;;;;;11.61;92.11;103064.69;5051351;28;20357;-60
2021/09/22 03:18:06;;;;;;;46.40;24.90;;;;;;;11.63;92.01;103064.66;5051591;28;20390;-67
2021/09/22 03:20:31;;;;;;;44.88;25.80;;;;;;;11.64;92.08;103061.09;5050887;28;20029;-64
2021/09/22 03:22:57;;;;;;;48.40;26.30;;;;;;;11.60;92.02;103054.97;5048817;28;20342;-59
2021/09/22 03:25:22;;;;;;;46.28;26.45;;;;;;;11.57;91.91;103057.66;5050981;28;20519;-62
2021/09/22 03:27:47;;;;;;;44.80;25.60;;;;;;;11.57;91.92;103051.47;5051197;28;20090;-59
2021/09/22 03:30:13;;;;;;;48.13;27.35;;;;;;;11.54;92.13;103044.41;5050731;28;20473;-60
2021/09/22 03:32:39;;;;;;;43.08;24.38;;;;;;;11.57;92.25;103047.06;5050810;28;20112;-60
2021/09/22 03:35:05;;;;;;;47.25;27.02;;;;;;;11.57;91.91;103046.16;5050650;28;20413;-59
2021/09/22 03:37:30;;;;;;;47.60;27.55;;;;;;;11.54;92.11;103048.84;5051294;28;20116;-60
2021/09/22 03:39:55;;;;;;;55.05;28.20;;;;;;;11.52;92.50;103048.88;5050730;28;20120;-61
2021/09/22 03:42:21;;;;;;;51.05;27.75;;;;;;;11.51;92.41;103046.22;5050373;28;20120;-62
2021/09/22 03:44:46;;;;;;;50.85;28.42;;;;;;;11.48;92.56;103047.16;5031653;28;20056;-69
2021/09/22 03:47:11;;;;;;;58.03;28.80;;;;;;;11.50;92.87;103041.84;5031349;28;20093;-60
2021/09/22 03:49:37;;;;;;;47.25;26.98;;;;;;;11.51;93.20;103035.63;5030706;28;20112;-64
2021/09/22 03:52:03;;;;;;;46.03;25.67;;;;;;;11.50;92.87;103033.88;5044330;28;20040;-70
2021/09/22 03:54:28;;;;;;;49.85;26.88;;;;;;;11.48;92.76;103041.84;5050190;28;20041;-61
2021/09/22 03:56:53;;;;;;;49.63;26.65;;;;;;;11.48;92.85;103036.53;5050267;28;20033;-60
2021/09/22 03:59:19;;;;;;;48.55;26.98;;;;;;;11.44;92.77;103030.38;5050615;28;20100;-62
2021/09/22 04:01:44;;;;;;;48.88;26.50;;;;;;;11.44;92.78;103043.66;5050471;28;20024;-60
2021/09/22 04:04:11;;;;;;;46.30;26.95;;;;;;;11.41;92.74;103035.75;5050612;28;20025;-60
2021/09/22 04:06:36;;;;;;;45.50;24.85;;;;;;;11.39;92.92;103032.22;5050395;28;20430;-60
2021/09/22 04:09:02;;;;;;;46.38;25.90;;;;;;;11.35;92.75;103035.81;5050233;28;20036;-60
2021/09/22 04:11:28;;;;;;;45.17;25.63;;;;;;;11.34;92.74;103035.84;5050104;28;20021;-60
2021/09/22 04:13:53;;;;;;;46.88;25.40;;;;;;;11.32;92.84;103034.09;5048583;28;20037;-60
2021/09/22 04:16:19;;;;;;;51.45;26.02;;;;;;;11.35;93.04;103034.97;5049614;28;20037;-59
2021/09/22 04:18:44;;;;;;;45.53;26.10;;;;;;;11.37;92.81;103035.78;5050105;28;20055;-60
2021/09/22 04:21:09;;;;;;;51.00;26.80;;;;;;;11.32;92.72;103036.75;5049963;28;20083;-62
2021/09/22 04:23:35;;;;;;;47.60;26.25;;;;;;;11.30;92.86;103038.56;5049778;28;20033;-60
2021/09/22 04:26:00;;;;;;;51.45;26.48;;;;;;;11.31;92.87;103037.63;5048678;28;20036;-60
2021/09/22 04:28:25;;;;;;;44.20;24.00;;;;;;;11.30;93.05;103040.31;5049492;28;20033;-65
2021/09/22 04:30:51;;;;;;;44.80;25.30;;;;;;;11.32;92.99;103038.53;5049986;28;20054;-70
2021/09/22 04:33:16;;;;;;;49.08;27.40;;;;;;;11.29;92.87;103043.84;5049857;28;20123;-60
2021/09/22 04:35:42;;;;;;;49.50;27.17;;;;;;;11.29;92.82;103042.09;5049352;28;20029;-60
2021/09/22 04:38:08;;;;;;;47.30;26.15;;;;;;;11.29;92.75;103050.06;5050192;28;20116;-60
2021/09/22 04:40:34;;;;;;;52.35;27.90;;;;;;;11.29;93.13;103044.75;5050106;28;20077;-60
2021/09/22 04:43:00;;;;;;;50.35;28.00;;;;;;;11.34;93.05;103035.84;5050378;28;20035;-61
2021/09/22 04:45:26;;;;;;;44.20;25.92;;;;;;;11.38;92.83;103050.81;5048317;28;20047;-69
2021/09/22 04:47:55;;;;;;;49.38;26.63;;;;;;;11.40;92.73;103044.59;5043658;28;20025;-73
2021/09/22 04:50:22;;;;;;;50.85;26.05;;;;;;;11.41;92.82;103049.00;5050476;28;20029;-75
2021/09/22 04:52:47;;;;;;;47.88;26.70;;;;;;;11.44;92.75;103053.41;5050307;28;20135;-70
2021/09/22 04:55:13;;;;;;;52.00;27.90;;;;;;;11.49;93.00;103048.91;5048954;28;20093;-71
2021/09/22 04:57:39;;;;;;;48.65;26.90;;;;;;;11.59;92.68;103047.03;5049342;28;20097;-73
2021/09/22 05:00:06;;;;;;;47.25;26.73;;;;;;;11.68;92.77;103051.31;5050670;28;20027;-70
2021/09/22 05:02:31;;;;;;;48.03;26.33;;;;;;;11.78;92.43;103048.50;5050675;28;20127;-78
2021/09/22 05:04:56;;;;;;;45.03;25.67;;;;;;;11.90;91.55;103050.09;5050772;28;20100;-62
2021/09/22 05:07:22;;;;;;;44.67;25.30;;;;;;;11.98;91.29;103047.34;5049996;28;20047;-65
2021/09/22 05:09:47;;;;;;;47.15;25.40;;;;;;;12.00;91.02;103058.84;5050459;28;20087;-73
2021/09/22 05:12:12;;;;;;;41.92;24.73;;;;;;;12.02;90.49;103049.09;5049854;28;20029;-61
2021/09/22 05:14:37;;;;;;;41.38;24.00;;;;;;;12.03;90.39;103050.81;5050810;28;20029;-72
2021/09/22 05:17:03;;;;;;;39.22;22.40;;;;;;;12.05;90.17;103051.69;5049514;28;20453;-62
2021/09/22 05:19:29;;;;;;;38.78;21.92;;;;;;;12.05;89.99;103053.47;5050320;28;20032;-62
2021/09/22 05:21:54;;;;;;;40.75;24.27;;;;;;;12.04;90.02;103055.22;5050125;28;20044;-63
2021/09/22 05:24:19;;;;;;;39.55;23.77;;;;;;;12.07;89.91;103054.31;5049080;28;20029;-61
2021/09/22 05:26:45;;;;;;;41.60;24.27;;;;;;;12.06;89.43;103053.44;5049236;28;20049;-69
2021/09/22 05:29:10;;;;;;;38.42;22.55;;;;;;;12.08;89.31;103056.06;5049951;28;20025;-62
2021/09/22 05:31:36;;;;;;;36.80;22.70;;;;;;;12.10;89.05;103052.47;5050455;28;20430;-77
2021/09/22 05:34:01;;;;;;;36.72;21.80;;;;;;;12.09;88.84;103052.50;5049660;28;20120;-62
2021/09/22 05:36:26;;;;;;;38.13;22.67;;;;;;;12.04;88.92;103044.63;5049633;28;20035;-62
2021/09/22 05:38:52;;;;;;;38.83;22.20;;;;;;;12.02;88.73;103046.44;5048852;28;20041;-65
2021/09/22 05:41:17;;;;;;;38.13;22.27;;;;;;;12.00;88.62;103048.22;5049031;28;20025;-62
2021/09/22 05:43:43;;;;;;;36.50;22.05;;;;;;;11.97;88.63;103056.25;5048943;28;20083;-61
2021/09/22 05:46:08;;;;;;;35.05;22.00;;;;;;;11.98;88.52;103050.00;5048905;28;20449;-73
2021/09/22 05:48:33;;;;;;;34.38;20.48;;;;;;;11.98;88.35;103059.78;5048634;28;20526;-62
2021/09/22 05:50:59;;;;;;;36.03;22.98;;;;;;;11.94;88.61;103057.13;5048979;28;20052;-62
2021/09/22 05:53:24;;;;;;;39.72;22.95;;;;;;;11.98;88.21;103055.31;5047666;28;20047;-61
2021/09/22 05:55:50;;;;;;;38.25;22.65;;;;;;;12.01;88.02;103065.03;5046223;28;20481;-61
2021/09/22 05:58:16;;;;;;;35.17;21.23;;;;;;;12.03;87.96;103061.44;5045975;28;20053;-73
2021/09/22 06:00:42;;;;;;;36.25;21.90;;;;;;;12.03;87.95;103064.09;5048131;28;20029;-73
2021/09/22 06:03:09;;;;;;;34.20;21.60;;;;;;;12.04;87.70;103062.34;5048233;28;20028;-63
2021/09/22 06:05:34;;;;;;;35.58;20.75;;;;;;;12.06;87.41;103069.38;5048603;28;20102;-63
2021/09/22 06:07:59;;;;;;;36.20;21.55;;;;;;;12.06;87.40;103057.84;5048045;28;20449;-61
2021/09/22 06:10:25;;;;;;;31.88;20.63;;;;;;;12.12;87.08;103060.41;5047275;28;20106;-61
2021/09/22 06:12:50;;;;;;;31.42;20.35;;;;;;;12.13;87.42;103060.41;5048182;28;20069;-61
2021/09/22 06:15:15;;;;;;;33.63;20.67;;;;;;;12.18;86.93;103055.00;5048165;28;20480;-63
2021/09/22 06:17:41;;;;;;;35.67;20.63;;;;;;;12.20;86.61;103055.00;5048739;28;20025;-61
2021/09/22 06:20:07;;;;;;;35.88;20.63;;;;;;;12.25;86.47;103048.72;5047963;28;20025;-62
2021/09/22 06:22:32;;;;;;;31.98;20.23;;;;;;;12.29;86.39;103046.88;5048060;28;20414;-65
2021/09/22 06:24:58;;;;;;;36.55;21.10;;;;;;;12.34;86.36;103055.66;5047020;28;20116;-61
2021/09/22 06:27:23;;;;;;;41.72;22.15;;;;;;;12.42;85.96;103044.91;5028564;28;20408;-64
2021/09/22 06:29:49;;;;;;;35.30;20.10;;;;;;;12.45;86.53;103051.03;5034483;28;20035;-68
2021/09/22 06:32:14;;;;;;;37.17;21.33;;;;;;;12.49;86.15;103051.84;5046713;28;20210;-62
2021/09/22 06:34:40;;;;;;;33.15;19.85;;;;;;;12.54;85.77;103052.63;5048325;28;20021;-64
2021/09/22 06:37:05;;;;;;;34.58;19.52;;;;;;;12.61;85.61;103053.44;5048273;28;20075;-66
2021/09/22 06:39:31;;;;;;;34.65;20.70;;;;;;;12.67;85.49;103055.09;5048507;28;20086;-75
2021/09/22 06:41:56;;;;;;;34.15;19.77;;;;;;;12.71;85.41;103051.47;5046785;28;20064;-66
2021/09/22 06:44:22;;;;;;;33.72;20.17;;;;;;;12.79;84.83;103062.84;5046884;28;20035;-64
2021/09/22 06:46:47;;;;;;;45.58;22.55;;;;;;;12.88;84.63;103062.66;5047902;28;20056;-64
2021/09/22 06:49:12;;;;;;;44.90;22.95;;;;;;;12.98;84.58;103065.13;5046837;28;20127;-60
2021/09/22 06:51:38;;;;;;;33.55;20.27;;;;;;;13.06;83.92;103060.56;5047006;28;20108;-65
2021/09/22 06:54:03;;;;;;;36.35;20.50;;;;;;;13.13;83.71;103064.84;5046849;28;20021;-75
2021/09/22 06:56:28;;;;;;;37.33;20.90;;;;;;;13.20;82.87;103062.94;5040178;28;20389;-69
2021/09/22 06:58:54;;;;;;;32.28;19.27;;;;;;;13.29;82.21;103062.75;5046446;28;20025;-68
2021/09/22 07:01:19;;;;;;;36.38;21.45;;;;;;;13.32;82.68;103062.69;5045023;28;20025;-65
2021/09/22 07:03:45;;;;;;;38.42;20.58;;;;;;;13.48;82.17;103065.03;5047740;28;20032;-65
2021/09/22 07:06:11;;;;;;;40.38;21.02;;;;;;;13.60;81.19;103062.13;5047173;28;20474;-67
2021/09/22 07:08:38;;;;;;;54.00;24.15;;;;;;;13.68;80.46;103060.19;5047405;28;20052;-71
2021/09/22 07:11:04;;;;;;;47.75;23.83;;;;;;;13.77;80.65;103064.41;5047195;28;20039;-73
2021/09/22 07:13:31;;;;;;;37.45;20.27;;;;;;;13.84;79.99;103074.00;5046923;28;20052;-67
2021/09/22 07:15:57;;;;;;;32.40;20.23;;;;;;;13.96;79.17;103079.97;5027611;28;20075;-64
2021/09/22 07:18:22;;;;;;;34.92;18.85;;;;;;;14.07;78.41;103081.47;5034872;28;20033;-74
2021/09/22 07:20:49;;;;;;;30.50;19.17;;;;;;;14.20;78.14;103082.03;5049213;28;20036;-72
2021/09/22 07:23:14;;;;;;;34.88;18.80;;;;;;;14.35;77.54;103085.28;5044586;28;20048;-65
2021/09/22 07:25:40;;;;;;;35.15;18.85;;;;;;;14.52;76.64;103080.38;5050916;28;20041;-62
2021/09/22 07:28:05;;;;;;;33.40;19.58;;;;;;;14.65;76.48;103069.44;5049970;28;20025;-70
2021/09/22 07:30:30;;;;;;;34.10;19.10;;;;;;;14.75;75.46;103069.13;5051225;28;20154;-69
2021/09/22 07:32:59;;;;;;;31.25;18.48;;;;;;;14.84;75.75;103069.81;5036437;28;20083;-65
2021/09/22 07:35:25;;;;;;;30.25;18.05;;;;;;;15.01;74.84;103072.91;5051088;28;20036;-72
2021/09/22 07:37:50;;;;;;;29.15;17.83;;;;;;;15.14;74.87;103080.53;5051254;28;20021;-65
2021/09/22 07:40:16;;;;;;;32.70;17.73;;;;;;;15.22;73.80;103070.53;5051675;28;20025;-77
2021/09/22 07:42:42;;;;;;;32.08;18.50;;;;;;;15.31;73.78;103064.06;5051383;28;20025;-67
2021/09/22 07:45:09;;;;;;;31.38;16.13;;;;;;;15.43;72.78;103057.47;5052054;28;20025;-70
2021/09/22 07:47:34;;;;;;;29.25;16.55;;;;;;;15.45;72.88;103061.84;5043232;28;20028;-66
2021/09/22 07:50:00;;;;;;;29.67;17.20;;;;;;;15.51;72.61;103067.00;5051213;28;20421;-68
2021/09/22 07:52:25;;;;;;;32.47;17.70;;;;;;;15.61;72.71;103062.25;5052060;28;20045;-75
2021/09/22 07:54:50;;;;;;;25.75;16.90;;;;;;;15.76;72.21;103066.25;5049900;28;20426;-72
2021/09/22 07:57:18;;;;;;;29.33;18.02;;;;;;;15.81;71.72;103063.44;5050819;28;20131;-63
2021/09/22 07:59:43;;;;;;;28.02;17.17;;;;;;;15.92;71.23;103049.75;5051567;28;20025;-68
2021/09/22 08:02:09;;;;;;;28.92;16.17;;;;;;;16.05;70.89;103053.81;5051406;28;20397;-63
2021/09/22 08:04:35;;;;;;;30.42;16.38;;;;;;;16.20;70.53;103055.06;5051169;28;20132;-75
2021/09/22 08:07:02;;;;;;;27.23;15.93;;;;;;;16.36;70.16;103052.78;5051958;28;20036;-68
2021/09/22 08:09:27;;;;;;;25.55;15.98;;;;;;;16.49;69.74;103054.09;5051592;28;20047;-71
2021/09/22 08:11:53;;;;;;;25.20;15.35;;;;;;;16.56;69.72;103046.75;5050722;28;20033;-65
2021/09/22 08:14:18;;;;;;;27.02;15.93;;;;;;;16.59;69.31;103051.97;5050644;28;20457;-70
2021/09/22 08:16:47;;;;;;;28.02;16.27;;;;;;;16.63;69.15;103053.59;5050527;28;20037;-62
2021/09/22 08:19:13;;;;;;;29.20;16.83;;;;;;;16.71;69.03;103056.91;5050605;28;20092;-67
2021/09/22 08:21:38;;;;;;;26.50;15.02;;;;;;;16.83;68.92;103055.59;5037804;28;20029;-66
2021/09/22 08:24:04;;;;;;;27.50;15.20;;;;;;;16.82;69.18;103064.53;5047397;28;20048;-68
2021/09/22 08:26:30;;;;;;;22.85;14.80;;;;;;;16.90;68.42;103055.38;5050256;28;20117;-64
2021/09/22 08:28:56;;;;;;;26.15;15.50;;;;;;;17.00;68.62;103044.28;5051365;28;20028;-64
2021/09/22 08:31:21;;;;;;;24.20;15.23;;;;;;;17.02;68.66;103053.13;5049036;28;20075;-62
2021/09/22 08:33:46;;;;;;;29.58;15.35;;;;;;;17.15;68.36;103045.53;5049713;28;20053;-61
2021/09/22 08:36:12;;;;;;;29.75;15.27;;;;;;;17.29;68.25;103057.50;5051280;28;20086;-66
2021/09/22 08:38:37;;;;;;;24.60;13.95;;;;;;;17.46;67.58;103052.38;5050720;28;20057;-80
2021/09/22 08:41:03;;;;;;;22.45;14.35;;;;;;;17.59;67.07;103060.81;5050961;28;20029;-79
2021/09/22 08:43:29;;;;;;;25.52;13.80;;;;;;;17.65;67.34;103055.22;5031341;28;20039;-62
2021/09/22 08:45:55;;;;;;;29.02;14.52;;;;;;;17.73;67.23;103054.91;5030367;28;20038;-65
2021/09/22 08:48:24;;;;;;;24.95;14.57;;;;;;;17.88;66.24;103055.22;5043102;28;20047;-72
2021/09/22 08:50:50;;;;;;;20.90;14.10;;;;;;;17.98;66.35;103046.78;5050809;28;20075;-65
2021/09/22 08:53:15;;;;;;;23.67;13.38;;;;;;;18.19;65.61;103049.50;5044073;28;20435;-67
2021/09/22 08:55:40;;;;;;;21.05;13.75;;;;;;;18.35;65.38;103047.06;5030531;28;20458;-65
2021/09/22 08:58:06;;;;;;;21.45;13.77;;;;;;;18.54;65.50;103051.63;5030885;28;20108;-64
2021/09/22 09:00:31;;;;;;;36.97;16.35;;;;;;;18.95;63.19;103048.94;5030660;28;20087;-75
2021/09/22 09:02:56;;;;;;;23.48;13.70;;;;;;;19.66;61.34;103056.41;5038464;28;20414;-71
2021/09/22 09:05:23;;;;;;;21.15;12.20;;;;;;;20.56;59.21;103068.09;5048235;28;20520;-76
2021/09/22 09:07:57;;;;;;;19.83;12.35;;;;;;;21.47;55.43;103062.38;5050403;28;20509;-63
2021/09/22 09:10:26;;;;;;;19.08;11.60;;;;;;;21.60;54.05;103072.44;5049730;28;20052;-62
2021/09/22 09:13:11;;;;;;;16.92;11.57;;;;;;;21.90;52.92;103057.28;5049310;28;20097;-62
2021/09/22 09:15:42;;;;;;;17.92;11.95;;;;;;;22.44;52.03;103062.22;5049387;28;20448;-63
2021/09/22 09:18:26;;;;;;;18.13;11.27;;;;;;;23.25;49.98;103050.09;5049462;28;20047;-62
2021/09/22 09:20:54;;;;;;;20.08;12.07;;;;;;;23.06;49.75;103053.91;5048228;28;20029;-74
2021/09/22 09:23:21;;;;;;;17.23;11.65;;;;;;;22.83;50.53;103051.81;5048831;28;20102;-60
2021/09/22 09:26:00;;;;;;;20.40;13.07;;;;;;;22.89;50.10;103056.78;5048311;28;20056;-63
2021/09/22 09:28:29;;;;;;;17.23;11.93;;;;;;;22.81;49.77;103037.50;5048080;28;20469;-65
2021/09/22 09:30:58;;;;;;;18.42;12.38;;;;;;;23.26;50.01;103045.53;5047992;28;20291;-62
2021/09/22 09:33:50;;;;;;;21.73;12.68;;;;;;;23.58;48.57;103034.47;5048188;28;20398;-71
2021/09/22 09:36:25;;;;;;;17.52;11.45;;;;;;;23.97;47.16;103030.97;5027773;28;20037;-60
2021/09/22 09:39:05;;;;;;;20.73;12.95;;;;;;;23.77;46.59;103034.13;5027926;28;20029;-63
2021/09/22 09:41:42;;;;;;;21.30;13.43;;;;;;;23.70;49.36;103034.53;5029528;28;20447;-62
2021/09/22 09:44:09;;;;;;;17.38;12.00;;;;;;;24.43;46.44;103026.09;5048420;28;20151;-62
2021/09/22 09:46:37;;;;;;;16.85;11.48;;;;;;;24.96;45.26;103029.59;5047686;28;20025;-62
2021/09/22 09:49:07;;;;;;;17.88;12.45;;;;;;;24.72;45.20;103025.91;5047941;28;20031;-62
2021/09/22 09:51:39;;;;;;;17.23;12.47;;;;;;;25.08;44.28;103030.53;5048156;28;20449;-63
2021/09/22 09:54:14;;;;;;;19.67;12.52;;;;;;;25.26;44.17;103032.91;5048159;28;20448;-59
2021/09/22 09:56:39;;;;;;;21.40;12.25;;;;;;;25.53;44.68;103035.44;5046944;28;20517;-62
2021/09/22 09:59:05;;;;;;;17.13;12.30;;;;;;;25.81;42.49;103031.53;5048283;28;20143;-71
2021/09/22 10:01:41;;;;;;;20.75;12.63;;;;;;;26.44;41.62;103028.56;5047840;28;20031;-67
2021/09/22 10:04:09;;;;;;;20.58;12.55;;;;;;;26.72;40.54;103030.97;5046931;28;20092;-61
2021/09/22 10:06:34;;;;;;;18.40;11.38;;;;;;;26.97;39.39;103021.69;5048041;28;20130;-68
2021/09/22 10:09:00;;;;;;;22.73;12.40;;;;;;;27.18;38.96;103023.69;5049124;28;20195;-62
2021/09/22 10:11:26;;;;;;;16.48;11.77;;;;;;;26.94;39.72;103028.25;5047350;28;20094;-80
2021/09/22 10:13:52;;;;;;;19.77;11.57;;;;;;;26.59;40.34;103034.63;5047687;28;20428;-65
2021/09/22 10:16:19;;;;;;;17.40;10.98;;;;;;;27.04;39.31;103022.94;5049371;28;20090;-61
2021/09/22 10:18:47;;;;;;;18.35;11.63;;;;;;;26.77;40.01;103018.75;5047594;28;20104;-66
2021/09/22 10:21:15;;;;;;;18.05;10.70;;;;;;;27.23;40.64;103024.19;5047457;28;20112;-66
2021/09/22 10:23:42;;;;;;;14.85;10.02;;;;;;;27.49;38.33;103023.91;5048323;28;20144;-63
2021/09/22 10:26:09;;;;;;;18.40;11.43;;;;;;;26.98;39.40;103027.03;5047237;28;20045;-68
2021/09/22 10:28:43;;;;;;;17.20;11.82;;;;;;;27.61;39.78;103025.56;5047282;28;20033;-77
2021/09/22 10:31:15;;;;;;;15.38;10.82;;;;;;;28.09;36.52;103021.59;5048494;28;20045;-65
2021/09/22 10:33:44;;;;;;;14.07;10.55;;;;;;;27.64;37.86;103018.03;5047792;28;20031;-61
2021/09/22 10:36:10;;;;;;;18.65;10.90;;;;;;;28.21;36.86;103012.38;5046541;28;20064;-62
2021/09/22 10:38:41;;;;;;;13.43;9.70;;;;;;;28.53;37.12;103011.41;5047793;28;20131;-63
2021/09/22 10:41:07;;;;;;;14.20;9.52;;;;;;;28.34;36.42;103014.00;5048152;28;20085;-74
2021/09/22 10:43:40;;;;;;;16.30;9.10;;;;;;;28.43;36.29;103007.78;5047189;28;20097;-62
2021/09/22 10:46:05;;;;;;;23.95;10.55;;;;;;;28.09;36.42;103003.38;5047570;28;20092;-65
2021/09/22 10:48:33;;;;;;;16.20;9.77;;;;;;;28.28;36.85;103001.81;5046995;28;20370;-61
2021/09/22 10:51:04;;;;;;;18.63;10.18;;;;;;;28.36;35.04;103004.69;5046893;28;20035;-59
2021/09/22 10:53:32;;;;;;;15.68;9.70;;;;;;;27.82;36.83;103000.28;5048682;28;20037;-66
2021/09/22 10:56:11;;;;;;;13.45;8.68;;;;;;;27.30;37.84;102995.47;5050810;28;20093;-59
2021/09/22 10:58:52;;;;;;;19.45;10.82;;;;;;;27.57;37.00;102989.63;5051013;28;20048;-61
2021/09/22 11:01:44;;;;;;;13.80;9.30;;;;;;;27.95;37.76;102984.63;5050663;28;20068;-58
2021/09/22 11:04:12;;;;;;;16.42;9.73;;;;;;;27.05;37.59;102986.63;5049881;28;20041;-61
2021/09/22 11:06:44;;;;;;;13.63;9.65;;;;;;;25.52;41.46;102984.88;5051411;28;20464;-67